createdAt,value
2023-03-18T00:00:19.249Z,11.00
2023-03-18T00:02:48.150Z,11.00
2023-03-18T00:05:16.304Z,10.90
2023-03-18T00:07:46.306Z,10.90
2023-03-18T00:10:13.598Z,10.80
2023-03-18T00:12:41.801Z,10.80
2023-03-18T00:17:40.227Z,10.80
2023-03-18T00:20:09.654Z,10.80
2023-03-18T00:22:39.153Z,10.70
2023-03-18T00:25:09.119Z,10.70
2023-03-18T00:27:36.754Z,10.70
2023-03-18T00:30:06.246Z,10.60
2023-03-18T00:32:34.428Z,10.50
2023-03-18T00:35:04.159Z,10.40
2023-03-18T00:37:33.716Z,10.30
2023-03-18T00:40:08.001Z,10.20
2023-03-18T00:42:39.419Z,10.10
2023-03-18T00:45:11.441Z,10.00
2023-03-18T00:47:38.644Z,10.00
2023-03-18T00:50:08.568Z,10.00
2023-03-18T00:52:37.723Z,9.90
2023-03-18T00:55:06.945Z,10.00
2023-03-18T00:57:33.898Z,9.90
2023-03-18T01:00:01.295Z,9.90
2023-03-18T01:02:29.736Z,10.00
2023-03-18T01:04:57.171Z,10.00
2023-03-18T01:07:25.166Z,10.00
2023-03-18T01:09:52.227Z,10.00
2023-03-18T01:12:19.559Z,10.00
2023-03-18T01:14:46.999Z,10.00
2023-03-18T01:17:14.587Z,9.90
2023-03-18T01:19:42.622Z,9.90
2023-03-18T01:22:10.146Z,9.80
2023-03-18T01:24:36.999Z,9.70
2023-03-18T01:27:04.300Z,9.60
2023-03-18T01:29:31.208Z,9.70
2023-03-18T01:31:58.179Z,9.70
2023-03-18T01:34:25.335Z,9.90
2023-03-18T01:36:52.521Z,10.00
2023-03-18T01:39:19.427Z,10.10
2023-03-18T01:41:46.819Z,10.00
2023-03-18T01:44:17.778Z,9.90
2023-03-18T01:46:47.084Z,10.00
2023-03-18T01:49:25.182Z,10.10
2023-03-18T01:52:02.835Z,10.30
2023-03-18T01:54:36.826Z,10.40
2023-03-18T01:57:04.310Z,10.40
2023-03-18T01:59:35.909Z,10.40
2023-03-18T02:02:06.972Z,10.50
2023-03-18T02:04:44.674Z,10.60
2023-03-18T02:07:28.055Z,10.50
2023-03-18T02:09:57.748Z,10.60
2023-03-18T02:12:30.166Z,10.60
2023-03-18T02:14:57.663Z,10.50
2023-03-18T02:17:31.084Z,10.60
2023-03-18T02:21:02.159Z,10.60
2023-03-18T02:24:01.669Z,10.60
2023-03-18T02:27:01.188Z,10.60
2023-03-18T02:29:37.242Z,10.70
2023-03-18T02:32:07.070Z,10.70
2023-03-18T02:34:36.362Z,10.70
2023-03-18T02:37:04.083Z,10.70
2023-03-18T02:39:31.594Z,10.70
2023-03-18T02:41:59.035Z,10.60
2023-03-18T02:47:17.585Z,10.60
2023-03-18T02:49:44.935Z,10.40
2023-03-18T02:52:12.159Z,10.50
2023-03-18T02:54:39.282Z,10.50
2023-03-18T02:57:06.350Z,10.50
2023-03-18T02:59:33.333Z,10.50
2023-03-18T03:02:01.592Z,10.60
2023-03-18T03:04:29.092Z,10.50
2023-03-18T03:06:57.575Z,10.50
2023-03-18T03:09:24.480Z,10.60
2023-03-18T03:11:51.653Z,10.60
2023-03-18T03:14:18.697Z,10.60
2023-03-18T03:16:45.726Z,10.60
2023-03-18T03:19:12.834Z,10.60
2023-03-18T03:21:40.067Z,10.60
2023-03-18T03:24:08.688Z,10.60
2023-03-18T03:26:36.268Z,10.50
2023-03-18T03:29:07.077Z,10.50
2023-03-18T03:31:34.876Z,10.50
2023-03-18T03:34:02.780Z,10.60
2023-03-18T03:36:29.856Z,10.60
2023-03-18T03:38:56.794Z,10.60
2023-03-18T03:41:23.740Z,10.60
2023-03-18T03:43:50.740Z,10.60
2023-03-18T03:46:20.847Z,10.60
2023-03-18T03:48:50.219Z,10.60
2023-03-18T03:51:17.125Z,10.60
2023-03-18T03:53:46.254Z,10.60
2023-03-18T03:56:17.661Z,10.60
2023-03-18T03:58:45.872Z,10.70
2023-03-18T04:01:13.726Z,10.70
2023-03-18T04:03:40.749Z,10.80
2023-03-18T04:06:08.028Z,10.80
2023-03-18T04:08:35.094Z,10.70
2023-03-18T04:11:03.638Z,10.80
2023-03-18T04:13:31.231Z,10.70
2023-03-18T04:15:58.577Z,10.70
2023-03-18T04:18:26.083Z,10.70
2023-03-18T04:20:53.197Z,10.70
2023-03-18T04:23:20.824Z,10.70
2023-03-18T04:25:47.798Z,10.70
2023-03-18T04:28:15.046Z,10.70
2023-03-18T04:30:41.930Z,10.70
2023-03-18T04:33:10.208Z,10.70
2023-03-18T04:35:37.834Z,10.60
2023-03-18T04:38:04.924Z,10.60
2023-03-18T04:40:32.443Z,10.60
2023-03-18T04:42:59.904Z,10.60
2023-03-18T04:45:27.066Z,10.60
2023-03-18T04:47:54.445Z,10.60
2023-03-18T04:50:21.730Z,10.50
2023-03-18T04:52:49.178Z,10.50
2023-03-18T04:55:20.613Z,10.40
2023-03-18T04:57:48.578Z,10.40
2023-03-18T05:00:21.858Z,10.40
2023-03-18T05:02:49.605Z,10.40
2023-03-18T05:05:16.787Z,10.40
2023-03-18T05:07:43.921Z,10.40
2023-03-18T05:10:11.777Z,10.40
2023-03-18T05:12:38.762Z,10.30
2023-03-18T05:15:07.152Z,10.30
2023-03-18T05:17:34.470Z,10.40
2023-03-18T05:20:01.886Z,10.30
2023-03-18T05:22:28.875Z,10.30
2023-03-18T05:24:55.998Z,10.20
2023-03-18T05:27:23.953Z,10.20
2023-03-18T05:29:50.959Z,10.10
2023-03-18T05:32:17.858Z,10.10
2023-03-18T05:34:44.921Z,10.00
2023-03-18T05:37:16.659Z,10.00
2023-03-18T05:39:44.933Z,9.90
2023-03-18T05:42:12.672Z,9.90
2023-03-18T05:44:40.555Z,9.80
2023-03-18T05:47:08.945Z,9.70
2023-03-18T05:49:36.736Z,9.70
2023-03-18T05:52:04.100Z,9.70
2023-03-18T05:54:31.230Z,9.60
2023-03-18T05:56:58.350Z,9.70
2023-03-18T05:59:25.794Z,9.60
2023-03-18T06:01:54.021Z,9.60
2023-03-18T06:04:21.156Z,9.60
2023-03-18T06:06:49.744Z,9.50
2023-03-18T06:09:17.578Z,9.60
2023-03-18T06:11:45.661Z,9.60
2023-03-18T06:14:13.329Z,9.60
2023-03-18T06:16:44.422Z,9.70
2023-03-18T06:19:12.149Z,9.70
2023-03-18T06:21:40.810Z,9.70
2023-03-18T06:24:08.988Z,9.80
2023-03-18T06:26:35.923Z,9.80
2023-03-18T06:29:04.728Z,9.80
2023-03-18T06:31:32.436Z,9.80
2023-03-18T06:34:01.336Z,9.80
2023-03-18T06:36:28.533Z,9.80
2023-03-18T06:38:56.181Z,9.80
2023-03-18T06:41:23.218Z,9.90
2023-03-18T06:43:51.746Z,9.90
2023-03-18T06:46:18.741Z,10.00
2023-03-18T06:48:46.604Z,10.10
2023-03-18T06:51:13.553Z,10.10
2023-03-18T06:53:42.027Z,10.10
2023-03-18T06:56:19.821Z,10.10
2023-03-18T06:58:46.737Z,10.10
2023-03-18T07:01:14.115Z,10.10
2023-03-18T07:03:41.639Z,10.20
2023-03-18T07:06:10.508Z,10.20
2023-03-18T07:08:38.304Z,10.30
2023-03-18T07:11:07.475Z,10.40
2023-03-18T07:13:34.874Z,10.40
2023-03-18T07:16:02.118Z,10.50
2023-03-18T07:18:29.576Z,10.70
2023-03-18T07:20:57.677Z,10.80
2023-03-18T07:23:24.629Z,10.90
2023-03-18T07:25:52.036Z,11.00
2023-03-18T07:28:21.995Z,11.00
2023-03-18T07:30:50.405Z,11.00
2023-03-18T07:33:18.232Z,11.00
2023-03-18T07:35:45.460Z,11.00
2023-03-18T07:38:12.957Z,11.10
2023-03-18T07:40:40.191Z,11.00
2023-03-18T07:43:07.682Z,11.00
2023-03-18T07:45:34.963Z,11.20
2023-03-18T07:48:02.091Z,11.20
2023-03-18T07:50:29.016Z,11.30
2023-03-18T07:52:56.058Z,11.50
2023-03-18T07:55:23.088Z,11.80
2023-03-18T07:57:50.603Z,11.90
2023-03-18T08:00:18.511Z,12.00
2023-03-18T08:02:48.800Z,12.30
2023-03-18T08:05:16.089Z,13.00
2023-03-18T08:07:45.134Z,13.40
2023-03-18T08:10:12.786Z,13.70
2023-03-18T08:12:52.024Z,14.40
2023-03-18T08:15:22.435Z,14.40
2023-03-18T08:17:51.150Z,14.70
2023-03-18T08:20:19.073Z,15.40
2023-03-18T08:22:46.444Z,15.20
2023-03-18T08:25:13.516Z,14.90
2023-03-18T08:27:40.695Z,14.80
2023-03-18T08:30:09.732Z,14.10
2023-03-18T08:32:37.486Z,13.60
2023-03-18T08:35:06.644Z,14.00
2023-03-18T08:37:33.765Z,14.10
2023-03-18T08:40:03.751Z,14.10
2023-03-18T08:42:32.052Z,14.00
2023-03-18T08:44:59.313Z,14.20
2023-03-18T08:47:26.229Z,14.60
2023-03-18T08:49:53.244Z,14.60
2023-03-18T08:52:20.287Z,14.40
2023-03-18T08:54:48.013Z,14.50
2023-03-18T08:57:16.111Z,14.90
2023-03-18T08:59:43.186Z,15.30
2023-03-18T09:02:16.895Z,15.60
2023-03-18T09:04:45.305Z,15.10
2023-03-18T09:07:13.338Z,14.50
2023-03-18T09:09:43.933Z,13.90
2023-03-18T09:12:12.882Z,13.80
2023-03-18T09:14:42.758Z,13.90
2023-03-18T09:17:10.322Z,14.20
2023-03-18T09:19:37.449Z,14.80
2023-03-18T09:22:05.065Z,14.90
2023-03-18T09:24:32.272Z,14.90
2023-03-18T09:29:28.640Z,14.60
2023-03-18T09:31:55.841Z,14.40
2023-03-18T09:34:23.406Z,14.70
2023-03-18T09:36:53.764Z,14.70
2023-03-18T09:39:22.080Z,14.90
2023-03-18T09:42:15.961Z,14.70
2023-03-18T09:44:43.751Z,14.60
2023-03-18T09:47:39.430Z,14.40
2023-03-18T09:50:32.873Z,14.30
2023-03-18T09:53:10.604Z,14.10
2023-03-18T09:55:49.969Z,13.90
2023-03-18T09:58:42.564Z,13.80
2023-03-18T10:01:13.886Z,14.20
2023-03-18T10:04:03.943Z,14.50
2023-03-18T10:09:09.087Z,14.90
2023-03-18T10:11:51.360Z,14.80
2023-03-18T10:14:27.130Z,14.50
2023-03-18T10:17:28.042Z,14.60
2023-03-18T10:19:59.676Z,14.90
2023-03-18T10:23:00.755Z,14.60
2023-03-18T10:25:43.058Z,14.40
2023-03-18T10:28:34.658Z,14.50
2023-03-18T10:31:23.837Z,14.90
2023-03-18T10:33:56.639Z,15.00
2023-03-18T10:36:34.001Z,14.60
2023-03-18T10:39:02.848Z,14.40
2023-03-18T10:41:32.569Z,14.20
2023-03-18T10:44:24.076Z,14.10
2023-03-18T10:47:16.576Z,14.10
2023-03-18T10:50:14.688Z,14.20
2023-03-18T10:53:01.808Z,14.10
2023-03-18T10:55:36.762Z,14.30
2023-03-18T10:58:19.631Z,14.50
2023-03-18T11:00:46.611Z,14.70
2023-03-18T11:03:24.386Z,14.80
2023-03-18T11:05:53.851Z,14.80
2023-03-18T11:08:41.093Z,14.80
2023-03-18T11:11:33.384Z,14.50
2023-03-18T11:14:13.103Z,14.60
2023-03-18T11:16:46.174Z,14.80
2023-03-18T11:19:33.952Z,15.10
2023-03-18T11:22:14.704Z,15.20
2023-03-18T11:24:42.946Z,15.20
2023-03-18T11:27:15.999Z,15.30
2023-03-18T11:30:11.120Z,15.10
2023-03-18T11:32:38.164Z,15.10
2023-03-18T11:35:09.070Z,15.00
2023-03-18T11:37:41.313Z,15.30
2023-03-18T11:40:29.563Z,15.50
2023-03-18T11:43:02.652Z,15.50
2023-03-18T11:45:49.687Z,15.50
2023-03-18T11:48:19.811Z,15.50
2023-03-18T11:51:12.611Z,15.40
2023-03-18T11:54:14.523Z,15.50
2023-03-18T11:56:59.240Z,15.60
2023-03-18T11:59:59.067Z,15.60
2023-03-18T12:03:02.194Z,15.60
2023-03-18T12:05:52.711Z,15.90
2023-03-18T12:08:31.790Z,16.10
2023-03-18T12:11:28.862Z,16.30
2023-03-18T12:14:25.935Z,16.00
2023-03-18T12:17:25.936Z,15.90
2023-03-18T12:20:34.244Z,15.80
2023-03-18T12:23:53.750Z,15.90
2023-03-18T12:26:38.846Z,15.80
2023-03-18T12:29:49.491Z,15.70
2023-03-18T12:33:01.879Z,15.90
2023-03-18T12:35:45.069Z,16.00
2023-03-18T12:39:13.101Z,16.30
2023-03-18T12:42:20.014Z,16.60
2023-03-18T12:44:53.127Z,16.60
2023-03-18T12:47:41.871Z,16.80
2023-03-18T12:50:21.889Z,16.90
2023-03-18T12:53:27.564Z,16.80
2023-03-18T12:56:02.532Z,16.40
2023-03-18T12:58:41.254Z,16.20
2023-03-18T13:01:22.648Z,16.20
2023-03-18T13:04:05.426Z,16.20
2023-03-18T13:06:50.982Z,16.30
2023-03-18T13:09:40.009Z,16.00
2023-03-18T13:12:29.128Z,16.20
2023-03-18T13:15:31.061Z,16.30
2023-03-18T13:18:05.900Z,16.60
2023-03-18T13:20:37.877Z,17.10
2023-03-18T13:24:02.872Z,17.60
2023-03-18T13:26:53.296Z,18.20
2023-03-18T13:29:38.786Z,18.90
2023-03-18T13:32:43.015Z,19.50
2023-03-18T13:35:59.969Z,19.90
2023-03-18T13:38:54.258Z,19.90
2023-03-18T13:42:02.723Z,19.80
2023-03-18T13:44:46.231Z,19.70
2023-03-18T13:47:21.872Z,20.30
2023-03-18T13:49:49.652Z,21.20
2023-03-18T13:52:44.115Z,21.70
2023-03-18T13:55:30.554Z,21.50
2023-03-18T13:58:20.602Z,21.60
2023-03-18T14:00:57.131Z,21.80
2023-03-18T14:03:43.671Z,20.70
2023-03-18T14:06:11.509Z,21.00
2023-03-18T14:08:42.898Z,21.10
2023-03-18T14:11:47.356Z,21.50
2023-03-18T14:14:48.355Z,22.30
2023-03-18T14:17:22.589Z,22.70
2023-03-18T14:19:55.744Z,21.50
2023-03-18T14:22:36.920Z,21.00
2023-03-18T14:25:27.496Z,21.30
2023-03-18T14:28:18.644Z,21.30
2023-03-18T14:30:51.165Z,20.60
2023-03-18T14:33:18.393Z,20.40
2023-03-18T14:35:52.478Z,20.50
2023-03-18T14:38:22.783Z,20.70
2023-03-18T14:40:54.301Z,20.20
2023-03-18T14:44:02.329Z,20.50
2023-03-18T14:46:38.243Z,20.50
2023-03-18T14:49:40.711Z,19.90
2023-03-18T14:52:40.208Z,19.30
2023-03-18T14:55:34.171Z,19.40
2023-03-18T14:58:02.295Z,19.40
2023-03-18T15:00:33.566Z,19.30
2023-03-18T15:03:20.125Z,19.50
2023-03-18T15:05:48.092Z,19.30
2023-03-18T15:08:19.510Z,18.80
2023-03-18T15:10:52.065Z,18.30
2023-03-18T15:13:21.916Z,18.30
2023-03-18T15:15:49.994Z,18.30
2023-03-18T15:18:34.531Z,18.00
2023-03-18T15:21:10.114Z,17.80
2023-03-18T15:23:48.497Z,18.30
2023-03-18T15:26:28.634Z,19.10
2023-03-18T15:28:59.285Z,19.20
2023-03-18T15:31:33.859Z,19.80
2023-03-18T15:34:25.508Z,19.90
2023-03-18T15:36:59.851Z,19.70
2023-03-18T15:39:36.195Z,19.70
2023-03-18T15:42:17.887Z,19.60
2023-03-18T15:44:46.737Z,19.70
2023-03-18T15:47:17.646Z,19.80
2023-03-18T15:53:22.355Z,20.10
2023-03-18T15:56:18.485Z,20.10
2023-03-18T15:58:46.351Z,20.40
2023-03-18T16:01:18.828Z,20.40
2023-03-18T16:03:46.900Z,20.40
2023-03-18T16:06:16.402Z,19.90
2023-03-18T16:08:43.587Z,18.80
2023-03-18T16:11:15.521Z,17.90
2023-03-18T16:13:43.821Z,17.70
2023-03-18T16:16:23.787Z,17.50
2023-03-18T16:18:53.213Z,17.30
2023-03-18T16:21:21.295Z,17.20
2023-03-18T16:23:48.524Z,17.30
2023-03-18T16:26:17.769Z,17.70
2023-03-18T16:28:48.296Z,18.00
2023-03-18T16:31:15.613Z,18.50
2023-03-18T16:33:43.209Z,19.10
2023-03-18T16:36:35.436Z,19.40
2023-03-18T16:39:16.869Z,19.80
2023-03-18T16:41:44.275Z,19.90
2023-03-18T16:44:21.339Z,19.80
2023-03-18T16:46:53.022Z,20.10
2023-03-18T16:49:32.485Z,19.70
2023-03-18T16:52:01.743Z,19.30
2023-03-18T16:54:32.848Z,18.30
2023-03-18T16:57:03.272Z,17.80
2023-03-18T16:59:34.047Z,17.30
2023-03-18T17:02:04.209Z,17.00
2023-03-18T17:04:36.781Z,16.30
2023-03-18T17:07:05.385Z,16.00
2023-03-18T17:09:32.357Z,15.90
2023-03-18T17:12:07.165Z,15.80
2023-03-18T17:14:39.842Z,15.70
2023-03-18T17:17:33.093Z,15.70
2023-03-18T17:20:00.134Z,15.60
2023-03-18T17:22:32.427Z,15.50
2023-03-18T17:25:02.233Z,15.50
2023-03-18T17:27:36.855Z,15.50
2023-03-18T17:30:20.894Z,15.50
2023-03-18T17:32:49.541Z,15.40
2023-03-18T17:35:20.661Z,15.40
2023-03-18T17:37:48.673Z,15.40
2023-03-18T17:40:21.522Z,15.30
2023-03-18T17:42:52.006Z,15.30
2023-03-18T17:45:35.314Z,15.10
2023-03-18T17:48:30.261Z,15.00
2023-03-18T17:51:01.912Z,14.90
2023-03-18T17:53:42.140Z,14.70
2023-03-18T17:56:14.157Z,14.40
2023-03-18T17:58:45.614Z,14.10
2023-03-18T18:01:19.698Z,14.10
2023-03-18T18:06:25.898Z,13.90
2023-03-18T18:08:56.415Z,13.80
2023-03-18T18:11:29.788Z,13.60
2023-03-18T18:14:04.797Z,13.50
2023-03-18T18:16:32.669Z,13.50
2023-03-18T18:18:59.950Z,13.40
2023-03-18T18:21:27.060Z,13.30
2023-03-18T18:23:54.451Z,13.10
2023-03-18T18:26:22.533Z,13.00
2023-03-18T18:28:53.424Z,12.80
2023-03-18T18:31:23.896Z,12.70
2023-03-18T18:33:51.119Z,12.70
2023-03-18T18:36:18.361Z,12.70
2023-03-18T18:38:45.523Z,12.60
2023-03-18T18:41:12.542Z,12.60
2023-03-18T18:43:39.636Z,12.50
2023-03-18T18:46:15.668Z,12.40
2023-03-18T18:48:45.176Z,12.30
2023-03-18T18:51:22.260Z,12.20
2023-03-18T18:53:52.517Z,12.10
2023-03-18T18:56:32.309Z,12.00
2023-03-18T18:58:59.476Z,11.90
2023-03-18T19:01:28.021Z,11.80
2023-03-18T19:03:55.783Z,11.80
2023-03-18T19:06:32.559Z,11.70
2023-03-18T19:09:04.009Z,11.60
2023-03-18T19:11:31.045Z,11.70
2023-03-18T19:14:28.767Z,11.60
2023-03-18T19:16:59.135Z,11.50
2023-03-18T19:19:33.424Z,11.40
2023-03-18T19:22:00.524Z,11.40
2023-03-18T19:24:31.953Z,11.40
2023-03-18T19:27:30.347Z,11.40
2023-03-18T19:30:01.472Z,11.40
2023-03-18T19:32:28.562Z,11.20
2023-03-18T19:34:55.993Z,11.10
2023-03-18T19:37:32.391Z,11.00
2023-03-18T19:40:00.862Z,11.00
2023-03-18T19:42:27.923Z,11.00
2023-03-18T19:44:55.920Z,10.90
2023-03-18T19:47:26.645Z,10.80
2023-03-18T19:49:53.865Z,10.80
2023-03-18T19:52:25.533Z,10.70
2023-03-18T19:54:54.359Z,10.60
2023-03-18T19:57:27.959Z,10.50
2023-03-18T19:59:58.955Z,10.40
2023-03-18T20:02:32.041Z,10.40
2023-03-18T20:05:02.668Z,10.40
2023-03-18T20:07:32.906Z,10.40
2023-03-18T20:10:00.377Z,10.30
2023-03-18T20:12:38.410Z,10.30
2023-03-18T20:15:41.432Z,10.30
2023-03-18T20:18:18.371Z,10.30
2023-03-18T20:20:51.440Z,10.30
2023-03-18T20:23:24.044Z,10.20
2023-03-18T20:25:53.888Z,10.10
2023-03-18T20:28:24.397Z,10.00
2023-03-18T20:30:54.020Z,9.80
2023-03-18T20:33:22.584Z,9.60
2023-03-18T20:35:54.571Z,9.60
2023-03-18T20:38:41.135Z,9.60
2023-03-18T20:41:10.819Z,9.60
2023-03-18T20:43:38.255Z,9.60
2023-03-18T20:46:06.014Z,9.60
2023-03-18T20:48:33.304Z,9.70
2023-03-18T20:51:00.317Z,9.60
2023-03-18T20:53:29.102Z,9.60
2023-03-18T20:55:56.773Z,9.60
2023-03-18T20:58:28.920Z,9.60
2023-03-18T21:00:56.088Z,9.60
2023-03-18T21:03:24.623Z,9.60
2023-03-18T21:05:53.779Z,9.60
2023-03-18T21:08:21.273Z,9.60
2023-03-18T21:10:53.091Z,9.50
2023-03-18T21:13:32.219Z,9.40
2023-03-18T21:16:01.323Z,9.40
2023-03-18T21:18:28.672Z,9.30
2023-03-18T21:20:56.930Z,9.40
2023-03-18T21:23:28.423Z,9.40
2023-03-18T21:25:56.923Z,9.50
2023-03-18T21:28:27.711Z,9.40
2023-03-18T21:30:58.251Z,9.30
2023-03-18T21:33:33.292Z,9.30
2023-03-18T21:36:01.706Z,9.30
2023-03-18T21:38:34.983Z,9.20
2023-03-18T21:41:02.505Z,9.20
2023-03-18T21:43:38.320Z,9.20
2023-03-18T21:46:10.358Z,9.30
2023-03-18T21:48:37.784Z,9.20
2023-03-18T21:51:06.521Z,9.20
2023-03-18T21:53:33.911Z,9.30
2023-03-18T21:56:01.045Z,9.30
2023-03-18T21:58:28.636Z,9.30
2023-03-18T22:00:59.950Z,9.40
2023-03-18T22:03:30.196Z,9.50
2023-03-18T22:05:57.615Z,9.50
2023-03-18T22:08:25.428Z,9.60
2023-03-18T22:10:52.991Z,9.60
2023-03-18T22:13:23.826Z,9.70
2023-03-18T22:15:56.114Z,9.70
2023-03-18T22:18:23.776Z,9.70
2023-03-18T22:20:51.833Z,9.70
2023-03-18T22:23:22.285Z,9.80
2023-03-18T22:25:57.509Z,9.80
2023-03-18T22:28:26.355Z,9.70
2023-03-18T22:30:57.192Z,9.60
2023-03-18T22:33:31.300Z,9.50
2023-03-18T22:35:59.963Z,9.40
2023-03-18T22:38:28.790Z,9.40
2023-03-18T22:40:57.361Z,9.40
2023-03-18T22:43:35.938Z,9.40
2023-03-18T22:46:06.549Z,9.30
2023-03-18T22:48:34.082Z,9.30
2023-03-18T22:51:02.677Z,9.30
2023-03-18T22:53:34.825Z,9.10
2023-03-18T22:56:09.281Z,9.10
2023-03-18T22:58:36.334Z,9.00
2023-03-18T23:01:04.155Z,9.00
2023-03-18T23:03:34.295Z,9.10
2023-03-18T23:06:03.689Z,9.10
2023-03-18T23:08:31.436Z,9.20
2023-03-18T23:11:04.300Z,9.30
2023-03-18T23:13:38.863Z,9.30
2023-03-18T23:16:11.732Z,9.30
2023-03-18T23:18:39.093Z,9.30
2023-03-18T23:21:06.447Z,9.40
2023-03-18T23:23:33.857Z,9.40
2023-03-18T23:26:02.220Z,9.50
2023-03-18T23:28:29.926Z,9.50
2023-03-18T23:30:57.253Z,9.60
2023-03-18T23:33:24.492Z,9.70
2023-03-18T23:35:52.005Z,9.80
2023-03-18T23:38:19.734Z,9.90
2023-03-18T23:40:46.770Z,10.00
2023-03-18T23:43:13.737Z,10.10
2023-03-18T23:45:41.226Z,10.20
2023-03-18T23:48:08.579Z,10.30
2023-03-18T23:50:35.476Z,10.40
2023-03-18T23:53:02.460Z,10.50
2023-03-18T23:55:36.416Z,10.60
2023-03-18T23:58:04.437Z,10.60
